TimeEST,TemperatureF,Dew PointF,Humidity,Sea Level PressureIn,VisibilityMPH,Wind Direction,Wind SpeedMPH,Gust SpeedMPH,PrecipitationIn,Events,Conditions,WindDirDegrees,DateUTC
12:54 AM,41.0,32.0,70,30.06,10.0,Calm,Calm,-,N/A,,Clear,0,2013-02-05 05:54:00
1:54 AM,41.0,33.1,73,30.04,10.0,Calm,Calm,-,N/A,,Clear,0,2013-02-05 06:54:00
2:54 AM,41.0,33.1,73,30.02,10.0,Calm,Calm,-,N/A,,Clear,0,2013-02-05 07:54:00
3:54 AM,42.1,34.0,73,30.00,10.0,Calm,Calm,-,N/A,,Clear,0,2013-02-05 08:54:00
4:54 AM,43.0,34.0,71,29.99,10.0,SSW,3.5,-,N/A,,Clear,210,2013-02-05 09:54:00
5:54 AM,43.0,35.1,74,30.00,10.0,Calm,Calm,-,N/A,,Clear,0,2013-02-05 10:54:00
6:54 AM,44.1,35.1,71,30.01,10.0,SSW,6.9,-,N/A,,Clear,200,2013-02-05 11:54:00
7:54 AM,46.9,36.0,66,30.03,10.0,WSW,5.8,-,N/A,,Clear,250,2013-02-05 12:54:00
8:54 AM,51.1,37.0,59,30.05,10.0,WSW,8.1,-,N/A,,Clear,240,2013-02-05 13:54:00
9:54 AM,55.9,35.1,45,30.04,10.0,WSW,6.9,-,N/A,,Clear,240,2013-02-05 14:54:00
10:54 AM,59.0,33.1,38,30.03,7.0,West,10.4,-,N/A,,Partly Cloudy,260,2013-02-05 15:54:00
11:54 AM,62.1,30.0,30,29.99,6.0,West,13.8,20.7,N/A,,Haze,260,2013-02-05 16:54:00
12:54 PM,63.0,30.0,29,29.96,10.0,West,13.8,21.9,N/A,,Partly Cloudy,260,2013-02-05 17:54:00
1:54 PM,64.9,33.1,31,29.93,10.0,West,13.8,-,N/A,,Mostly Cloudy,260,2013-02-05 18:54:00
2:54 PM,64.9,33.1,31,29.91,10.0,SW,11.5,-,N/A,,Scattered Clouds,230,2013-02-05 19:54:00
3:54 PM,66.0,32.0,28,29.90,10.0,SW,9.2,-,N/A,,Partly Cloudy,230,2013-02-05 20:54:00
4:54 PM,64.9,33.1,31,29.89,10.0,SW,9.2,-,N/A,,Clear,220,2013-02-05 21:54:00
5:54 PM,60.1,35.1,39,29.90,10.0,South,6.9,-,N/A,,Clear,180,2013-02-05 22:54:00
6:54 PM,52.0,39.0,61,29.93,10.0,SSW,3.5,-,N/A,,Clear,200,2013-02-05 23:54:00
7:54 PM,54.0,41.0,62,29.95,10.0,SSW,5.8,-,N/A,,Clear,200,2013-02-06 00:54:00
8:54 PM,51.1,39.9,66,29.96,10.0,SW,5.8,-,N/A,,Clear,220,2013-02-06 01:54:00
9:54 PM,48.9,42.1,77,29.97,10.0,SW,3.5,-,N/A,,Clear,220,2013-02-06 02:54:00
10:54 PM,46.9,41.0,80,29.98,10.0,SSW,3.5,-,N/A,,Clear,210,2013-02-06 03:54:00
11:54 PM,46.9,39.9,77,29.99,10.0,Calm,Calm,-,N/A,,Clear,0,2013-02-06 04:54:00